createdAt,value
2022-11-28T00:01:37.957Z,100162.38
2022-11-28T00:04:08.269Z,100168.59
2022-11-28T00:06:38.685Z,100168.72
2022-11-28T00:09:07.378Z,100175.06
2022-11-28T00:11:36.150Z,100176.84
2022-11-28T00:14:03.994Z,100167.28
2022-11-28T00:16:32.042Z,100165.41
2022-11-28T00:19:02.096Z,100152.31
2022-11-28T00:21:31.886Z,100159.88
2022-11-28T00:24:00.855Z,100146.56
2022-11-28T00:26:31.785Z,100145.69
2022-11-28T00:29:03.409Z,100136.03
2022-11-28T00:31:34.476Z,100145.22
2022-11-28T00:34:03.246Z,100130.59
2022-11-28T00:36:32.291Z,100142.00
2022-11-28T00:39:00.046Z,100128.25
2022-11-28T00:41:31.133Z,100125.81
2022-11-28T00:43:58.916Z,100119.25
2022-11-28T00:46:28.147Z,100112.50
2022-11-28T00:48:57.891Z,100112.50
2022-11-28T00:51:28.992Z,100109.06
2022-11-28T00:54:01.107Z,100109.06
2022-11-28T00:56:32.610Z,100102.44
2022-11-28T00:59:00.806Z,100096.34
2022-11-28T01:01:32.329Z,100087.84
2022-11-28T01:04:03.239Z,100097.00
2022-11-28T01:06:34.591Z,100102.34
2022-11-28T01:09:06.546Z,100103.34
2022-11-28T01:11:35.247Z,100096.41
2022-11-28T01:14:03.685Z,100092.88
2022-11-28T01:16:31.628Z,100094.75
2022-11-28T01:18:59.687Z,100097.56
2022-11-28T01:21:28.055Z,100092.25
2022-11-28T01:23:56.296Z,100092.34
2022-11-28T01:26:28.926Z,100085.50
2022-11-28T01:28:57.384Z,100083.94
2022-11-28T01:31:28.679Z,100068.44
2022-11-28T01:33:57.418Z,100059.63
2022-11-28T01:36:26.852Z,100064.84
2022-11-28T01:38:54.854Z,100061.31
2022-11-28T01:41:27.822Z,100052.00
2022-11-28T01:44:02.442Z,100052.00
2022-11-28T01:46:31.619Z,100057.97
2022-11-28T01:49:09.352Z,100046.13
2022-11-28T01:51:41.900Z,100056.25
2022-11-28T01:54:09.668Z,100045.06
2022-11-28T01:56:47.207Z,100054.44
2022-11-28T01:59:16.138Z,100046.03
2022-11-28T02:01:45.607Z,100047.78
2022-11-28T02:04:14.291Z,100041.75
2022-11-28T02:06:43.182Z,100039.25
2022-11-28T02:09:14.482Z,100039.19
2022-11-28T02:12:12.471Z,100033.78
2022-11-28T02:15:08.993Z,100034.59
2022-11-28T02:17:48.963Z,100036.16
2022-11-28T02:20:43.263Z,100034.44
2022-11-28T02:23:20.728Z,100035.22
2022-11-28T02:26:30.378Z,100038.53
2022-11-28T02:29:51.271Z,100033.56
2022-11-28T02:32:48.937Z,100036.88
2022-11-28T02:35:21.527Z,100029.97
2022-11-28T02:38:05.007Z,100035.44
2022-11-28T02:40:39.451Z,100032.06
2022-11-28T02:43:16.995Z,100023.38
2022-11-28T02:45:57.857Z,100020.66
2022-11-28T02:48:39.394Z,100030.13
2022-11-28T02:51:15.028Z,100012.72
2022-11-28T02:53:45.961Z,100011.78
2022-11-28T02:56:14.536Z,100005.81
2022-11-28T02:58:42.362Z,100004.06
2022-11-28T03:01:19.479Z,100005.25
2022-11-28T03:04:11.131Z,100009.56
2022-11-28T03:06:53.024Z,100015.59
2022-11-28T03:09:43.345Z,100019.22
2022-11-28T03:12:24.866Z,100041.91
2022-11-28T03:14:56.219Z,100035.06
2022-11-28T03:17:41.003Z,100030.78
2022-11-28T03:20:22.829Z,100025.53
2022-11-28T03:23:13.396Z,100038.53
2022-11-28T03:25:57.735Z,100029.69
2022-11-28T03:28:32.590Z,100032.66
2022-11-28T03:31:07.701Z,100038.88
2022-11-28T03:33:42.530Z,100038.59
2022-11-28T03:36:19.395Z,100023.78
2022-11-28T03:38:55.193Z,100030.84
2022-11-28T03:41:33.189Z,100029.19
2022-11-28T03:44:06.882Z,100030.28
2022-11-28T03:46:41.561Z,100023.41
2022-11-28T03:49:15.749Z,100029.34
2022-11-28T03:51:52.819Z,100031.78
2022-11-28T03:54:28.745Z,100030.56
2022-11-28T03:57:09.406Z,100029.94
2022-11-28T03:59:42.654Z,100035.16
2022-11-28T04:02:21.837Z,100033.50
2022-11-28T04:05:00.683Z,100035.06
2022-11-28T04:07:39.884Z,100038.66
2022-11-28T04:10:17.696Z,100035.88
2022-11-28T04:12:55.640Z,100035.72
2022-11-28T04:15:33.288Z,100039.34
2022-11-28T04:18:19.906Z,100039.09
2022-11-28T04:20:53.533Z,100039.59
2022-11-28T04:23:25.995Z,100048.84
2022-11-28T04:26:01.688Z,100044.47
2022-11-28T04:28:33.793Z,100048.63
2022-11-28T04:31:06.350Z,100047.69
2022-11-28T04:33:39.725Z,100038.13
2022-11-28T04:36:11.263Z,100045.88
2022-11-28T04:38:44.798Z,100036.56
2022-11-28T04:41:19.711Z,100038.06
2022-11-28T04:43:58.929Z,100029.63
2022-11-28T04:46:37.896Z,100031.03
2022-11-28T04:49:06.321Z,100037.84
2022-11-28T04:51:45.402Z,100034.28
2022-11-28T04:54:24.628Z,100028.75
2022-11-28T04:57:00.117Z,100028.16
2022-11-28T04:59:32.426Z,100023.06
2022-11-28T05:02:05.183Z,100009.38
2022-11-28T05:04:36.630Z,100019.78
2022-11-28T05:07:08.728Z,100023.00
2022-11-28T05:09:38.381Z,100027.66
2022-11-28T05:12:07.081Z,100029.38
2022-11-28T05:14:34.928Z,100029.38
2022-11-28T05:17:02.604Z,100028.66
2022-11-28T05:19:30.401Z,100034.53
2022-11-28T05:21:58.239Z,100040.72
2022-11-28T05:24:31.984Z,100031.13
2022-11-28T05:27:01.488Z,100039.06
2022-11-28T05:29:29.243Z,100041.34
2022-11-28T05:31:57.122Z,100038.75
2022-11-28T05:34:24.903Z,100036.28
2022-11-28T05:36:52.676Z,100044.78
2022-11-28T05:39:20.452Z,100043.00
2022-11-28T05:41:48.676Z,100039.53
2022-11-28T05:44:19.102Z,100037.84
2022-11-28T05:46:51.140Z,100037.84
2022-11-28T05:49:21.506Z,100042.13
2022-11-28T05:51:58.432Z,100043.13
2022-11-28T05:54:27.512Z,100040.31
2022-11-28T05:56:55.226Z,100035.28
2022-11-28T05:59:24.338Z,100043.00
2022-11-28T06:01:52.135Z,100043.59
2022-11-28T06:04:19.887Z,100049.84
2022-11-28T06:06:50.834Z,100055.03
2022-11-28T06:09:23.232Z,100055.03
2022-11-28T06:11:53.588Z,100048.78
2022-11-28T06:14:21.382Z,100049.66
2022-11-28T06:16:50.565Z,100046.44
2022-11-28T06:19:18.428Z,100045.44
2022-11-28T06:21:46.289Z,100055.03
2022-11-28T06:24:13.955Z,100051.44
2022-11-28T06:26:41.734Z,100046.34
2022-11-28T06:29:09.564Z,100051.50
2022-11-28T06:31:37.364Z,100054.00
2022-11-28T06:34:06.595Z,100048.00
2022-11-28T06:36:35.057Z,100047.13
2022-11-28T06:39:02.843Z,100046.28
2022-11-28T06:44:59.180Z,100041.25
2022-11-28T06:47:26.901Z,100049.09
2022-11-28T06:49:56.142Z,100050.03
2022-11-28T06:52:24.232Z,100049.31
2022-11-28T06:54:54.605Z,100045.78
2022-11-28T06:57:22.583Z,100039.47
2022-11-28T06:59:50.670Z,100041.97
2022-11-28T07:02:18.546Z,100041.09
2022-11-28T07:04:46.330Z,100044.63
2022-11-28T07:07:16.817Z,100042.75
2022-11-28T07:09:45.137Z,100045.13
2022-11-28T07:12:13.938Z,100055.19
2022-11-28T07:14:41.840Z,100056.34
2022-11-28T07:17:09.710Z,100047.59
2022-11-28T07:19:37.939Z,100060.50
2022-11-28T07:22:05.661Z,100057.41
2022-11-28T07:24:34.711Z,100049.41
2022-11-28T07:27:02.468Z,100045.91
2022-11-28T07:29:42.024Z,100054.66
2022-11-28T07:32:13.898Z,100059.91
2022-11-28T07:34:44.632Z,100064.88
2022-11-28T07:37:16.055Z,100060.19
2022-11-28T07:39:45.409Z,100067.00
2022-11-28T07:42:13.319Z,100065.34
2022-11-28T07:44:41.019Z,100070.31
2022-11-28T07:47:08.790Z,100074.75
2022-11-28T07:49:36.536Z,100083.25
2022-11-28T07:52:04.564Z,100075.59
2022-11-28T07:54:32.315Z,100072.25
2022-11-28T07:57:16.676Z,100070.66
2022-11-28T07:59:44.850Z,100073.19
2022-11-28T08:02:13.188Z,100070.50
2022-11-28T08:04:47.606Z,100079.97
2022-11-28T08:07:17.458Z,100062.94
2022-11-28T08:09:45.652Z,100069.75
2022-11-28T08:12:14.963Z,100067.44
2022-11-28T08:14:43.043Z,100065.13
2022-11-28T08:17:12.984Z,100077.31
2022-11-28T08:19:40.696Z,100069.59
2022-11-28T08:22:08.437Z,100067.59
2022-11-28T08:24:36.324Z,100078.03
2022-11-28T08:27:07.259Z,100071.19
2022-11-28T08:29:36.462Z,100074.50
2022-11-28T08:32:04.482Z,100069.94
2022-11-28T08:34:32.225Z,100066.19
2022-11-28T08:37:00.572Z,100067.19
2022-11-28T08:39:28.395Z,100073.38
2022-11-28T08:41:57.653Z,100064.00
2022-11-28T08:44:26.649Z,100069.09
2022-11-28T08:46:56.094Z,100064.13
2022-11-28T08:49:23.873Z,100062.44
2022-11-28T08:51:51.878Z,100053.59
2022-11-28T08:54:20.765Z,100054.44
2022-11-28T08:56:48.489Z,100056.53
2022-11-28T08:59:16.245Z,100054.03
2022-11-28T09:01:44.026Z,100060.25
2022-11-28T09:04:13.154Z,100056.97
2022-11-28T09:06:41.095Z,100071.09
2022-11-28T09:09:09.049Z,100069.25
2022-11-28T09:11:38.254Z,100070.94
2022-11-28T09:14:07.259Z,100059.06
2022-11-28T09:16:35.190Z,100065.22
2022-11-28T09:19:03.166Z,100070.50
2022-11-28T09:21:32.887Z,100072.22
2022-11-28T09:24:00.672Z,100071.44
2022-11-28T09:26:29.850Z,100069.88
2022-11-28T09:28:57.647Z,100074.34
2022-11-28T09:31:25.808Z,100066.66
2022-11-28T09:33:54.041Z,100076.88
2022-11-28T09:36:24.695Z,100077.69
2022-11-28T09:38:53.793Z,100079.41
2022-11-28T09:41:49.875Z,100083.63
2022-11-28T09:46:21.766Z,100086.22
2022-11-28T09:49:02.933Z,100084.34
2022-11-28T09:51:49.768Z,100091.28
2022-11-28T09:54:29.490Z,100086.88
2022-11-28T09:56:59.446Z,100085.38
2022-11-28T09:59:30.604Z,100083.63
2022-11-28T10:02:18.878Z,100086.22
2022-11-28T10:05:01.412Z,100082.13
2022-11-28T10:07:52.222Z,100078.66
2022-11-28T10:10:42.345Z,100080.06
2022-11-28T10:13:20.443Z,100085.38
2022-11-28T10:16:01.929Z,100080.22
2022-11-28T10:18:40.415Z,100077.75
2022-11-28T10:21:24.725Z,100076.22
2022-11-28T10:23:59.123Z,100082.38
2022-11-28T10:26:36.091Z,100084.28
2022-11-28T10:29:21.267Z,100083.31
2022-11-28T10:31:55.097Z,100071.38
2022-11-28T10:34:30.867Z,100066.09
2022-11-28T10:37:06.279Z,100073.91
2022-11-28T10:39:44.666Z,100077.34
2022-11-28T10:42:22.123Z,100078.94
2022-11-28T10:45:08.498Z,100072.13
2022-11-28T10:48:07.423Z,100078.88
2022-11-28T10:51:02.037Z,100077.34
2022-11-28T10:53:43.933Z,100075.88
2022-11-28T10:56:29.807Z,100072.31
2022-11-28T10:59:11.627Z,100072.63
2022-11-28T11:01:44.725Z,100070.72
2022-11-28T11:04:21.780Z,100059.56
2022-11-28T11:07:14.884Z,100069.13
2022-11-28T11:09:46.847Z,100069.03
2022-11-28T11:12:23.148Z,100075.44
2022-11-28T11:14:52.546Z,100062.78
2022-11-28T11:17:36.293Z,100058.38
2022-11-28T11:20:27.873Z,100062.84
2022-11-28T11:22:58.657Z,100066.47
2022-11-28T11:25:29.677Z,100072.53
2022-11-28T11:28:01.697Z,100070.88
2022-11-28T11:30:35.853Z,100066.53
2022-11-28T11:33:06.983Z,100064.88
2022-11-28T11:35:42.758Z,100069.13
2022-11-28T11:38:30.308Z,100063.44
2022-11-28T11:41:27.620Z,100063.50
2022-11-28T11:43:56.614Z,100059.81
2022-11-28T11:46:25.666Z,100064.06
2022-11-28T11:48:54.436Z,100070.09
2022-11-28T11:51:26.784Z,100067.47
2022-11-28T11:54:04.644Z,100073.81
2022-11-28T11:56:38.332Z,100075.34
2022-11-28T11:59:16.051Z,100065.09
2022-11-28T12:01:51.434Z,100067.00
2022-11-28T12:04:45.121Z,100064.47
2022-11-28T12:07:26.979Z,100073.16
2022-11-28T12:10:03.079Z,100074.66
2022-11-28T12:12:37.121Z,100075.41
2022-11-28T12:15:17.639Z,100074.66
2022-11-28T12:18:06.371Z,100071.06
2022-11-28T12:20:53.219Z,100069.88
2022-11-28T12:23:52.976Z,100076.53
2022-11-28T12:26:34.258Z,100076.47
2022-11-28T12:29:21.925Z,100080.06
2022-11-28T12:32:03.810Z,100081.72
2022-11-28T12:34:54.531Z,100081.66
2022-11-28T12:38:09.044Z,100078.25
2022-11-28T12:40:37.946Z,100088.94
2022-11-28T12:43:30.580Z,100082.97
2022-11-28T12:46:10.468Z,100084.72
2022-11-28T12:49:03.280Z,100074.22
2022-11-28T12:51:50.117Z,100082.25
2022-11-28T12:54:34.668Z,100081.47
2022-11-28T12:57:16.773Z,100080.69
2022-11-28T12:59:57.241Z,100086.69
2022-11-28T13:02:38.824Z,100080.66
2022-11-28T13:05:25.659Z,100084.16
2022-11-28T13:08:21.979Z,100080.84
2022-11-28T13:11:04.292Z,100085.34
2022-11-28T13:13:41.531Z,100078.03
2022-11-28T13:16:27.184Z,100088.41
2022-11-28T13:19:04.490Z,100086.31
2022-11-28T13:21:44.990Z,100082.91
2022-11-28T13:24:33.283Z,100081.72
2022-11-28T13:27:16.062Z,100082.66
2022-11-28T13:29:57.407Z,100091.47
2022-11-28T13:32:35.348Z,100085.50
2022-11-28T13:35:05.277Z,100094.84
2022-11-28T13:40:43.110Z,100091.56
2022-11-28T13:43:24.248Z,100092.94
2022-11-28T13:45:53.479Z,100096.44
2022-11-28T13:49:14.461Z,100094.78
2022-11-28T13:51:43.205Z,100103.22
2022-11-28T13:54:41.065Z,100098.03
2022-11-28T13:57:21.895Z,100100.81
2022-11-28T13:59:59.565Z,100090.34
2022-11-28T14:02:41.864Z,100103.28
2022-11-28T14:05:31.664Z,100101.53
2022-11-28T14:08:00.859Z,100102.22
2022-11-28T14:11:02.617Z,100106.97
2022-11-28T14:13:57.979Z,100103.34
2022-11-28T14:16:51.791Z,100115.41
2022-11-28T14:19:42.139Z,100109.50
2022-11-28T14:22:34.162Z,100105.19
2022-11-28T14:25:17.227Z,100113.31
2022-11-28T14:27:59.371Z,100117.53
2022-11-28T14:30:35.288Z,100109.06
2022-11-28T14:33:15.840Z,100112.50
2022-11-28T14:36:29.478Z,100111.72
2022-11-28T14:39:32.538Z,100110.97
2022-11-28T14:45:44.438Z,100109.19
2022-11-28T14:48:29.930Z,100110.22
2022-11-28T14:51:02.170Z,100122.91
2022-11-28T14:53:45.479Z,100121.38
2022-11-28T14:56:25.886Z,100121.31
2022-11-28T14:59:00.875Z,100117.06
2022-11-28T15:01:55.376Z,100120.47
2022-11-28T15:04:57.607Z,100121.31
2022-11-28T15:07:41.639Z,100123.91
2022-11-28T15:10:23.566Z,100130.88
2022-11-28T15:13:13.133Z,100125.69
2022-11-28T15:15:48.659Z,100130.13
2022-11-28T15:18:19.191Z,100135.25
2022-11-28T15:20:55.316Z,100139.06
2022-11-28T15:23:29.313Z,100134.75
2022-11-28T15:26:00.114Z,100138.22
2022-11-28T15:28:32.127Z,100143.47
2022-11-28T15:31:06.748Z,100141.09
2022-11-28T15:33:35.957Z,100139.50
2022-11-28T15:36:20.759Z,100141.28
2022-11-28T15:38:48.678Z,100141.28
2022-11-28T15:41:22.406Z,100142.97
2022-11-28T15:43:51.936Z,100140.16
2022-11-28T15:46:28.939Z,100141.84
2022-11-28T15:48:58.287Z,100150.22
2022-11-28T15:51:30.133Z,100147.78
2022-11-28T15:53:59.877Z,100144.38
2022-11-28T15:56:27.694Z,100150.34
2022-11-28T15:58:55.793Z,100153.50
2022-11-28T16:01:25.980Z,100153.41
2022-11-28T16:04:02.083Z,100150.84
2022-11-28T16:06:34.042Z,100153.59
2022-11-28T16:09:05.701Z,100153.72
2022-11-28T16:11:36.280Z,100159.66
2022-11-28T16:14:09.917Z,100154.47
2022-11-28T16:16:39.630Z,100164.59
2022-11-28T16:19:24.676Z,100165.31
2022-11-28T16:21:56.846Z,100159.28
2022-11-28T16:24:31.114Z,100167.16
2022-11-28T16:27:04.285Z,100157.63
2022-11-28T16:29:35.506Z,100157.53
2022-11-28T16:32:08.264Z,100161.06
2022-11-28T16:34:48.837Z,100161.06
2022-11-28T16:37:23.160Z,100168.97
2022-11-28T16:40:04.828Z,100175.84
2022-11-28T16:42:34.952Z,100178.50
2022-11-28T16:45:15.524Z,100182.63
2022-11-28T16:47:45.495Z,100184.22
2022-11-28T16:50:21.650Z,100185.41
2022-11-28T16:52:53.123Z,100182.88
2022-11-28T16:55:44.151Z,100184.88
2022-11-28T16:58:17.016Z,100189.31
2022-11-28T17:00:56.404Z,100189.25
2022-11-28T17:03:47.295Z,100199.38
2022-11-28T17:06:21.467Z,100199.28
2022-11-28T17:08:49.805Z,100198.34
2022-11-28T17:11:22.829Z,100201.88
2022-11-28T17:13:51.752Z,100206.13
2022-11-28T17:16:22.659Z,100200.09
2022-11-28T17:18:51.098Z,100201.06
2022-11-28T17:21:33.024Z,100195.75
2022-11-28T17:24:01.676Z,100201.94
2022-11-28T17:26:29.590Z,100204.63
2022-11-28T17:28:57.946Z,100201.00
2022-11-28T17:31:25.742Z,100212.06
2022-11-28T17:33:53.500Z,100219.09
2022-11-28T17:36:22.631Z,100219.13
2022-11-28T17:38:50.319Z,100218.41
2022-11-28T17:41:18.221Z,100215.78
2022-11-28T17:43:45.915Z,100213.28
2022-11-28T17:46:14.450Z,100213.44
2022-11-28T17:48:42.261Z,100211.81
2022-11-28T17:51:10.685Z,100211.75
2022-11-28T17:53:39.891Z,100217.91
2022-11-28T17:56:11.487Z,100211.91
2022-11-28T17:58:40.220Z,100208.47
2022-11-28T18:01:11.069Z,100211.09
2022-11-28T18:03:39.823Z,100210.31
2022-11-28T18:06:16.463Z,100210.22
2022-11-28T18:08:48.984Z,100212.78
2022-11-28T18:11:19.149Z,100217.84
2022-11-28T18:13:47.378Z,100217.91
2022-11-28T18:16:19.539Z,100225.81
2022-11-28T18:18:47.868Z,100222.41
2022-11-28T18:21:17.106Z,100218.09
2022-11-28T18:23:52.146Z,100222.66
2022-11-28T18:26:23.868Z,100226.19
2022-11-28T18:28:53.431Z,100216.00
2022-11-28T18:31:24.829Z,100226.38
2022-11-28T18:33:58.737Z,100216.91
2022-11-28T18:36:32.615Z,100229.97
2022-11-28T18:39:05.501Z,100225.53
2022-11-28T18:41:33.783Z,100230.69
2022-11-28T18:44:04.760Z,100228.13
2022-11-28T18:46:34.349Z,100228.97
2022-11-28T18:49:03.164Z,100231.41
2022-11-28T18:51:34.486Z,100228.81
2022-11-28T18:54:05.785Z,100232.03
2022-11-28T18:56:36.036Z,100238.75
2022-11-28T18:59:04.237Z,100233.69
2022-11-28T19:01:35.196Z,100243.13
2022-11-28T19:04:09.280Z,100240.66
2022-11-28T19:06:39.684Z,100243.25
2022-11-28T19:09:13.422Z,100249.34
2022-11-28T19:11:43.019Z,100254.66
2022-11-28T19:14:16.343Z,100253.06
2022-11-28T19:16:45.250Z,100256.50
2022-11-28T19:19:17.339Z,100257.44
2022-11-28T19:21:45.398Z,100251.56
2022-11-28T19:24:15.454Z,100249.00
2022-11-28T19:26:43.723Z,100249.06
2022-11-28T19:29:12.979Z,100251.00
2022-11-28T19:31:42.227Z,100259.59
2022-11-28T19:34:13.832Z,100261.38
2022-11-28T19:36:45.859Z,100267.50
2022-11-28T19:39:19.017Z,100273.53
2022-11-28T19:41:47.309Z,100274.19
2022-11-28T19:44:16.112Z,100275.75
2022-11-28T19:46:44.258Z,100276.63
2022-11-28T19:49:17.932Z,100281.25
2022-11-28T19:51:48.002Z,100282.16
2022-11-28T19:54:19.643Z,100283.91
2022-11-28T19:56:48.296Z,100280.41
2022-11-28T19:59:16.714Z,100278.66
2022-11-28T20:01:45.326Z,100288.25
2022-11-28T20:04:14.207Z,100281.44
2022-11-28T20:06:42.089Z,100283.28
2022-11-28T20:09:13.027Z,100277.09
2022-11-28T20:11:45.568Z,100278.66
2022-11-28T20:14:17.038Z,100290.75
2022-11-28T20:16:46.187Z,100285.69
2022-11-28T20:19:15.719Z,100285.69
2022-11-28T20:21:46.354Z,100285.75
2022-11-28T20:24:16.039Z,100290.97
2022-11-28T20:26:47.448Z,100295.41
2022-11-28T20:29:18.062Z,100290.91
2022-11-28T20:31:47.772Z,100299.50
2022-11-28T20:34:18.966Z,100294.41
2022-11-28T20:36:51.939Z,100292.66
2022-11-28T20:39:35.254Z,100299.69
2022-11-28T20:42:04.985Z,100297.84
2022-11-28T20:44:32.863Z,100308.34
2022-11-28T20:47:00.829Z,100303.31
2022-11-28T20:49:28.704Z,100301.47
2022-11-28T20:51:56.688Z,100304.84
2022-11-28T20:54:25.917Z,100297.09
2022-11-28T20:59:43.218Z,100309.13
2022-11-28T21:02:11.617Z,100308.38
2022-11-28T21:04:39.388Z,100311.91
2022-11-28T21:07:07.128Z,100309.34
2022-11-28T21:09:34.811Z,100311.91
2022-11-28T21:12:02.534Z,100306.59
2022-11-28T21:14:30.476Z,100311.50
2022-11-28T21:16:59.666Z,100313.38
2022-11-28T21:19:27.382Z,100311.91
2022-11-28T21:21:55.271Z,100316.22
2022-11-28T21:24:23.012Z,100322.44
2022-11-28T21:26:53.844Z,100318.97
2022-11-28T21:29:23.843Z,100318.06
2022-11-28T21:31:52.920Z,100326.75
2022-11-28T21:34:22.773Z,100331.09
2022-11-28T21:36:50.634Z,100320.66
2022-11-28T21:39:20.822Z,100323.25
2022-11-28T21:41:48.828Z,100326.53
2022-11-28T21:44:16.680Z,100327.53
2022-11-28T21:46:44.714Z,100320.53
2022-11-28T21:49:13.774Z,100328.44
2022-11-28T21:51:42.851Z,100329.22
2022-11-28T21:54:11.679Z,100321.56
2022-11-28T21:56:39.788Z,100332.56
2022-11-28T21:59:07.929Z,100335.84
2022-11-28T22:01:36.079Z,100334.00
2022-11-28T22:04:05.014Z,100336.47
2022-11-28T22:06:33.468Z,100332.03
2022-11-28T22:09:09.102Z,100339.78
2022-11-28T22:11:39.174Z,100343.00
2022-11-28T22:14:07.415Z,100346.84
2022-11-28T22:16:35.405Z,100337.69
2022-11-28T22:19:05.016Z,100341.22
2022-11-28T22:21:53.199Z,100343.06
2022-11-28T22:24:23.983Z,100340.53
2022-11-28T22:26:53.270Z,100339.78
2022-11-28T22:29:21.092Z,100339.72
2022-11-28T22:31:50.033Z,100345.00
2022-11-28T22:34:19.081Z,100349.38
2022-11-28T22:36:46.895Z,100345.09
2022-11-28T22:39:15.362Z,100344.16
2022-11-28T22:41:44.547Z,100344.97
2022-11-28T22:44:12.380Z,100352.75
2022-11-28T22:46:40.091Z,100340.53
2022-11-28T22:49:10.486Z,100353.44
2022-11-28T22:51:40.182Z,100351.63
2022-11-28T22:54:12.531Z,100351.69
2022-11-28T22:56:40.884Z,100347.44
2022-11-28T22:59:13.897Z,100354.31
2022-11-28T23:01:43.388Z,100352.56
2022-11-28T23:04:11.670Z,100355.91
2022-11-28T23:06:40.346Z,100358.56
2022-11-28T23:09:11.828Z,100354.91
2022-11-28T23:11:40.245Z,100362.69
2022-11-28T23:14:14.149Z,100360.03
2022-11-28T23:16:45.159Z,100362.44
2022-11-28T23:19:17.213Z,100370.94
2022-11-28T23:21:48.337Z,100373.69
2022-11-28T23:24:20.736Z,100366.97
2022-11-28T23:26:52.436Z,100361.88
2022-11-28T23:29:21.658Z,100362.75
2022-11-28T23:31:50.426Z,100367.06
2022-11-28T23:34:18.480Z,100361.66
2022-11-28T23:36:47.159Z,100371.06
2022-11-28T23:39:17.538Z,100368.28
2022-11-28T23:41:47.428Z,100368.28
2022-11-28T23:44:17.543Z,100371.88
2022-11-28T23:46:48.227Z,100367.63
2022-11-28T23:49:16.271Z,100377.13
2022-11-28T23:51:44.112Z,100370.34
2022-11-28T23:54:12.828Z,100380.84
2022-11-28T23:56:42.312Z,100371.38
2022-11-28T23:59:12.616Z,100369.59
